X  Schlie├čen METAR Luftfahrt Wetterdaten     LOWS Salzburg Airport
Temperatur
6°C Temperatur
4°C Taupunkt
87% Feuchtigkeit



Wind
10 km/h
6 MPS
3 m/s
5 KTS



310°
NW
Aktuelle Wetterlage

Meistens vereinzelte Wolken Meistens vereinzelte Wolken
Luftdruck 1021 (hPa) - 30.15 (inHg)
Sichtweite 4.3 (Meile) - 7 (km)
Flughafen
Flughafen Code LOWS

Position : Salzburg Airport
Entfernung: 67 (km)

Metar:
LOWS 281720Z AUTO 31005KT 7000 SCT013 BKN015 06/04 Q1021 NOSIG

Zeit: 2024-02-28 18:20 CET